Home > Products > Valid Products > MTR

000
SAUS41 KCAR 271657
MTRGNR
METAR KGNR 271656Z AUTO 33015G22KT M04/M08 A2981 RMK AO1 SLP117
T10441078 $





000
SAUS41 KCAR 271558
MTRGNR
METAR KGNR 271556Z AUTO 34009G19KT M04/M08 A2979 RMK AO1 SLP111
T10441083 $





000
SAUS41 KCAR 271457
MTRGNR
METAR KGNR 271456Z AUTO 33012G20KT M04/M08 A2978 RMK AO1 SLP105
60001 T10441078 53016 $





000
SAUS41 KCAR 271358
MTRGNR
METAR KGNR 271356Z AUTO 34014G20KT M06/M08 A2976 RMK AO1 SLP099
T10561083 $





000
SAUS41 KCAR 271257
MTRGNR
METAR KGNR 271256Z AUTO 34014G21KT M06/M08 A2974 RMK AO1 SLP094
P0001 T10561078 $





000
SAUS41 KCAR 271158
MTRGNR
METAR KGNR 271156Z AUTO 33013G22KT M06/M08 A2973 RMK AO1 SLP089
P0001 60009 70048 T10611078 11044 21061 53007 $





000
SAUS41 KCAR 271057
MTRGNR
METAR KGNR 271056Z AUTO 35010G24KT M06/M08 A2972 RMK AO1 SLP085
P0002 T10561078 $





000
SAUS41 KCAR 270957
MTRGNR
METAR KGNR 270956Z AUTO 01011G18KT M06/M07 A2972 RMK AO1 PK WND
34031/0910 SLP084 P0002 T10561072 $





000
SAUS41 KCAR 270957
MTRGNR
METAR KGNR 270956Z AUTO 01011G18KT M06/M07 A2972 RMK AO1 PK WND
34031/0910 SLP084 P0002 T10561072 $





000
SAUS41 KCAR 270858
MTRGNR
METAR KGNR 270856Z AUTO 35020G27KT M05/M07 A2971 RMK AO1 PK WND
35035/0834 SLP081 P0001 60004 T10501072 58013 $





000
SAUS41 KCAR 270757
MTRGNR
METAR KGNR 270756Z AUTO 01018G33KT M04/M07 A2972 RMK AO1 PK WND
01033/0754 SLP083 P0001 T10441072 $





000
SAUS41 KCAR 270658
MTRGNR
METAR KGNR 270656Z AUTO 36018G26KT M04/M07 A2974 RMK AO1 PK WND
35030/0618 SLP092 P0002 T10441067 $





000
SAUS41 KCAR 270557
MTRGNR
METAR KGNR 270556Z AUTO 01019G26KT M04/M07 A2975 RMK AO1 PK WND
35027/0517 SLP093 P0002 60027 T10441067 11022 21044 58030 $





000
SAUS41 KCAR 270458
MTRGNR
METAR KGNR 270456Z AUTO 36014G22KT M04/M06 A2980 RMK AO1 PK WND
35031/0414 SLP109 T10391061 400441039 $





000
SAUS41 KCAR 270357
MTRGNR
METAR KGNR 270356Z AUTO 36014G22KT M03/M06 A2981 RMK AO1 PK WND
02027/0318 PRESFR SLP115 P0004 T10331056 $





000
SAUS41 KCAR 270357
MTRGNR
METAR KGNR 270356Z AUTO 36014G22KT M03/M06 A2981 RMK AO1 PK WND
02027/0318 PRESFR SLP115 P0004 T10331056 $





000
SAUS41 KCAR 270258
MTRGNR
METAR KGNR 270256Z AUTO 36016G25KT M03/M04 A2984 RMK AO1 SLP124
P0007 60021 T10281044 58052 $





000
SAUS41 KCAR 270157
MTRGNR
METAR KGNR 270156Z AUTO 36012G19KT M02/M04 A2991 RMK AO1 SLP147
P0006 T10221039 $





000
SAUS41 KCAR 270058
MTRGNR
METAR KGNR 270056Z AUTO 36008KT M02/M04 A2997 RMK AO1 SLP169 P0008
T10221039





000
SAUS41 KCAR 262357
MTRGNR
METAR KGNR 262356Z AUTO 36009KT M02/M04 A3000 RMK AO1 SLP179 P0006
60012 T10221039 10000 21022 56031





000
SAUS41 KCAR 262258
MTRGNR
METAR KGNR 262256Z AUTO 36008KT M02/M04 A3001 RMK AO1 SLP181 P0003
T10221039





000
SAUS41 KCAR 262157
MTRGNR
METAR KGNR 262156Z AUTO 02004KT M02/M03 A3006 RMK AO1 PRESFR SLP199
P0003 T10221033





000
SAUS41 KCAR 262157
MTRGNR
METAR KGNR 262156Z AUTO 02004KT M02/M03 A3006 RMK AO1 PRESFR SLP199
P0003 T10221033





000
SAUS41 KCAR 262057
MTRGNR
METAR KGNR 262056Z AUTO 00000KT M02/M04 A3010 RMK AO1 SLP210
T10171044 55004





000
SAUS41 KCAR 261957
MTRGNR
METAR KGNR 261956Z AUTO 00000KT M01/M07 A3010 RMK AO1 SLP209
T10061067





000
SAUS41 KCAR 261858
MTRGNR
METAR KGNR 261856Z AUTO 01004KT M01/M07 A3010 RMK AO1 SLP211
T10061072





000
SAUS41 KCAR 261800
MTRGNR
METAR KGNR 261756Z AUTO 01007KT M01/M07 A3011 RMK AO1 SLP213
T10061072 10006 21006 56019





000
SAUS41 KCAR 261657
MTRGNR
METAR KGNR 261656Z AUTO 35006KT 00/M07 A3012 RMK AO1 SLP215
T00001072





000
SAUS41 KCAR 261558
MTRGNR
METAR KGNR 261556Z AUTO 32007KT 01/M06 A3013 RMK AO1 SLP220
T00061061





000
SAUS41 KCAR 261457
MTRGNR
METAR KGNR 261456Z AUTO 32005KT 01/M05 A3017 RMK AO1 SLP233
T00061050 51019





000
SAUS41 KCAR 261358
MTRGNR
METAR KGNR 261356Z AUTO 33004KT 01/M05 A3016 RMK AO1 SLP232
T00061050





000
SAUS41 KCAR 261257
MTRGNR
METAR KGNR 261256Z AUTO VRB04G15KT 00/M06 A3011 RMK AO1 SLP215
T00001056





000
SAUS41 KCAR 261157
MTRGNR
METAR KGNR 261156Z AUTO 32009G17KT 00/M06 A3011 RMK AO1 SLP212
T00001061 10039 20000 51011





000
SAUS41 KCAR 261057
MTRGNR
METAR KGNR 261056Z AUTO VRB03KT 00/M06 A3009 RMK AO1 SLP205
T00001061





000
SAUS41 KCAR 260957
MTRGNR
METAR KGNR 260956Z AUTO VRB05KT 01/M07 A3010 RMK AO1 SLP208
T00061067





000
SAUS41 KCAR 260957
MTRGNR
METAR KGNR 260956Z AUTO VRB05KT 01/M07 A3010 RMK AO1 SLP208
T00061067





000
SAUS41 KCAR 260858
MTRGNR
METAR KGNR 260856Z AUTO VRB03KT 01/M07 A3007 RMK AO1 SLP198
T00111072 53034





000
SAUS41 KCAR 260757
MTRGNR
METAR KGNR 260756Z AUTO VRB05KT 02/M04 A3003 RMK AO1 SLP182
T00221039





000
SAUS41 KCAR 260658
MTRGNR
METAR KGNR 260656Z AUTO VRB04KT 03/M04 A3001 RMK AO1 SLP173
T00331044





000
SAUS41 KCAR 260557
MTRGNR
METAR KGNR 260556Z AUTO VRB05KT 04/M04 A2997 RMK AO1 SLP160
T00391039 10044 20017 53021





000
SAUS41 KCAR 260458
MTRGNR
METAR KGNR 260456Z AUTO 28007KT 180V360 04/M04 A2994 RMK AO1 SLP147
T00391044 401280017





000
SAUS41 KCAR 260357
MTRGNR
METAR KGNR 260356Z AUTO VRB04KT 04/M04 A2992 RMK AO1 SLP141
T00391044





000
SAUS41 KCAR 260357
MTRGNR
METAR KGNR 260356Z AUTO VRB04KT 04/M04 A2992 RMK AO1 SLP141
T00391044





000
SAUS41 KCAR 260258
MTRGNR
METAR KGNR 260256Z AUTO 00000KT 03/M04 A2991 RMK AO1 SLP139
T00281044 53016





000
SAUS41 KCAR 260157
MTRGNR
METAR KGNR 260156Z AUTO VRB03KT 02/M04 A2987 RMK AO1 SLP127
T00221039





000
SAUS41 KCAR 260058
MTRGNR
METAR KGNR 260056Z AUTO 03/M03 A2986 RMK AO1 SLP123 T00331033





000
SAUS41 KCAR 252357
MTRGNR
METAR KGNR 252356Z AUTO 00000KT 04/M02 A2986 RMK AO1 SLP122
T00391022 10094 20039 53028





000
SAUS41 KCAR 252258
MTRGNR
METAR KGNR 252256Z AUTO 29004KT 04/M02 A2982 RMK AO1 SLP110
T00441022





000
SAUS41 KCAR 252157
MTRGNR
METAR KGNR 252156Z AUTO 31007KT 260V340 06/M02 A2979 RMK AO1 SLP097
T00561022





000
SAUS41 KCAR 252157
MTRGNR
METAR KGNR 252156Z AUTO 31007KT 260V340 06/M02 A2979 RMK AO1 SLP097
T00561022





000
SAUS41 KCAR 252057
MTRGNR
METAR KGNR 252056Z AUTO 00000KT 06/M02 A2977 RMK AO1 SLP089
T00611017 53013





000
SAUS41 KCAR 251957
MTRGNR
METAR KGNR 251956Z AUTO 00000KT 08/M01 A2975 RMK AO1 SLP083
T00831006





000
SAUS41 KCAR 251858
MTRGNR
METAR KGNR 251856Z AUTO VRB04KT 09/00 A2974 RMK AO1 SLP075 T00940000





000
SAUS41 KCAR 251757
MTRGNR
METAR KGNR 251756Z AUTO 00000KT 09/00 A2973 RMK AO1 SLP074 T00940000
10100 20067 53004





000
SAUS41 KCAR 251658
MTRGNR
METAR KGNR 251656Z AUTO VRB05KT 10/01 A2972 RMK AO1 SLP068 T01000011





000
SAUS41 KCAR 251658
MTRGNR
METAR KGNR 251656Z AUTO VRB05KT 10/01 A2972 RMK AO1 SLP068 T01000011





000
SAUS41 KCAR 251557
MTRGNR
METAR KGNR 251556Z AUTO VRB03KT 09/02 A2972 RMK AO1 SLP068 T00940017





000
SAUS41 KCAR 251457
MTRGNR
METAR KGNR 251456Z AUTO VRB03KT 09/03 A2972 RMK AO1 SLP068 T00890028
51026





000
SAUS41 KCAR 251358
MTRGNR
METAR KGNR 251356Z AUTO 00000KT 08/04 A2971 RMK AO1 SLP065 T00780039





000
SAUS41 KCAR 251257
MTRGNR
METAR KGNR 251256Z AUTO 00000KT 07/04 A2967 RMK AO1 SLP054 T00720044





000
SAUS41 KCAR 251157
MTRGNR
METAR KGNR 251156Z AUTO 00000KT 07/06 A2964 RMK AO1 SLP041 P0001
60002 70060 T00720056 10117 20072 53025





000
SAUS41 KCAR 251058
MTRGNR
METAR KGNR 251056Z AUTO VRB03KT 09/07 A2959 RMK AO1 SLP025 T00890067





000
SAUS41 KCAR 251058
MTRGNR
METAR KGNR 251056Z AUTO VRB03KT 09/07 A2959 RMK AO1 SLP025 T00890067





000
SAUS41 KCAR 250957
MTRGNR
METAR KGNR 250956Z AUTO 00000KT 09/08 A2958 RMK AO1 SLP020 T00940078





000
SAUS41 KCAR 250858
MTRGNR
METAR KGNR 250856Z AUTO 18004KT 11/08 A2956 RMK AO1 SLP013 60001
T01060078 51014





000
SAUS41 KCAR 250757
MTRGNR
METAR KGNR 250756Z AUTO 00000KT 09/08 A2955 RMK AO1 SLP012 T00940078





000
SAUS41 KCAR 250658
MTRGNR
METAR KGNR 250656Z AUTO VRB03KT 10/09 A2955 RMK AO1 SLP011 P0001
T01000089





000
SAUS41 KCAR 250557
MTRGNR
METAR KGNR 250556Z AUTO VRB04KT 12/09 A2952 RMK AO1 SLP000 P0008
60012 T01170094 10133 20117 53020





000
SAUS41 KCAR 250458
MTRGNR
METAR KGNR 250456Z AUTO VRB05KT 13/12 A2949 RMK AO1 SLP989 P0001
T01280117 401330022





000
SAUS41 KCAR 250357
MTRGNR
METAR KGNR 250356Z AUTO 20008G16KT 170V230 13/12 A2946 RMK AO1
SLP982 T01280117





000
SAUS41 KCAR 250357
MTRGNR
METAR KGNR 250356Z AUTO 20008G16KT 170V230 13/12 A2946 RMK AO1
SLP982 T01280117





000
SAUS41 KCAR 250258
MTRGNR
METAR KGNR 250256Z AUTO 20007KT 13/12 A2945 RMK AO1 SLP980 P0001
60003 T01280122 51001





000
SAUS41 KCAR 250157
MTRGNR
METAR KGNR 250156Z AUTO 20008G16KT 13/12 A2945 RMK AO1 SLP979 P0001
T01330122





000
SAUS41 KCAR 250058
MTRGNR
METAR KGNR 250056Z AUTO VRB06KT 13/12 A2946 RMK AO1 SLP982 P0001
T01330122





000
SAUS41 KCAR 242357
MTRGNR
METAR KGNR 242356Z AUTO 18010G16KT 13/12 A2945 RMK AO1 SLP980 P0001
60008 T01330122 10133 20094 55009





000
SAUS41 KCAR 242259
MTRGNR
METAR KGNR 242256Z AUTO 18010G24KT 13/12 A2945 RMK AO1 SLP980 P0002
T01280122





000
SAUS41 KCAR 242157
MTRGNR
METAR KGNR 242156Z AUTO 17009G23KT 12/12 A2946 RMK AO1 SLP984 P0002
T01220122





000
SAUS41 KCAR 242057
MTRGNR
METAR KGNR 242056Z AUTO 17006KT 12/12 A2948 RMK AO1 SLP991 P0001
60003 T01220122 56028





000
SAUS41 KCAR 241958
MTRGNR
METAR KGNR 241956Z AUTO VRB04KT 12/11 A2951 RMK AO1 SLP002 P0001
T01170111





000
SAUS41 KCAR 241857
MTRGNR
METAR KGNR 241856Z AUTO 16008G17KT 120V180 11/10 A2952 RMK AO1
SLP007 P0001 T01060100





000
SAUS41 KCAR 241758
MTRGNR
METAR KGNR 241756Z AUTO 16009KT 09/09 A2957 RMK AO1 SLP021 P0003
60038 T00940094 10094 20039 56059





    US Dept of Commerce
    National Oceanic and Atmospheric Administration
    National Weather Service
    1325 East West Highway
    Silver Spring, MD 20910
    Page Author: NWS Internet Services Team
Disclaimer
Information Quality
Credits
Glossary
Privacy Policy
Freedom of Information Act (FOIA)
About Us
Career Opportunities